Time;durP1;ratioP1;P1;durP2;ratioP2;P2;SDS_P1;SDS_P2;PMS_P1;PMS_P2;Temp;Humidity;BMP_temperature;BMP_pressure;BME280_temperature;BME280_humidity;BME280_pressure;Samples;Min_cycle;Max_cycle;Signal;HPM_P1;HPM_P2
2023/09/17 00:01:20;;;;;;;19.33;5.10;;;;;;;;;;5032504;28;20925;-78
2023/09/17 00:03:47;;;;;;;18.20;4.32;;;;;;;;;;5034214;28;20481;-76
2023/09/17 00:06:15;;;;;;;19.20;5.13;;;;;;;;;;5005844;28;20503;-78
2023/09/17 00:08:42;;;;;;;18.60;5.05;;;;;;;;;;5000503;28;20423;-77
2023/09/17 00:11:09;;;;;;;20.13;5.60;;;;;;;;;;5019941;28;20422;-80
2023/09/17 00:13:39;;;;;;;22.00;6.97;;;;;;;;;;5034222;28;20454;-80
2023/09/17 00:16:05;;;;;;;20.25;5.80;;;;;;;;;;5017354;28;20423;-78
2023/09/17 00:18:32;;;;;;;20.40;7.20;;;;;;;;;;5028671;28;20418;-77
2023/09/17 00:20:59;;;;;;;22.88;7.35;;;;;;;;;;5035726;28;20407;-78
2023/09/17 00:23:26;;;;;;;23.55;7.30;;;;;;;;;;5040251;28;20425;-77
2023/09/17 00:25:53;;;;;;;20.20;6.22;;;;;;;;;;5020737;28;20434;-77
2023/09/17 00:28:20;;;;;;;22.02;6.20;;;;;;;;;;5028480;28;20413;-77
2023/09/17 00:30:48;;;;;;;21.33;6.73;;;;;;;;;;5024008;28;20919;-76
2023/09/17 00:33:15;;;;;;;23.33;6.53;;;;;;;;;;5024840;28;20928;-75
2023/09/17 00:35:43;;;;;;;19.88;6.07;;;;;;;;;;5009952;28;20415;-77
2023/09/17 00:38:09;;;;;;;19.90;6.00;;;;;;;;;;5033468;28;20465;-76
2023/09/17 00:40:38;;;;;;;24.60;7.20;;;;;;;;;;5035036;28;20425;-76
2023/09/17 00:43:05;;;;;;;21.48;6.72;;;;;;;;;;5011838;28;20987;-77
2023/09/17 00:45:32;;;;;;;21.10;6.20;;;;;;;;;;5025722;28;20430;-77
2023/09/17 00:48:03;;;;;;;20.70;6.72;;;;;;;;;;5050386;28;20409;-78
2023/09/17 00:50:31;;;;;;;21.20;7.50;;;;;;;;;;5015240;28;20924;-78
2023/09/17 00:52:58;;;;;;;23.23;7.10;;;;;;;;;;5041356;28;20920;-77
2023/09/17 00:55:25;;;;;;;22.50;6.80;;;;;;;;;;5032706;28;20417;-78
2023/09/17 00:57:52;;;;;;;21.10;6.50;;;;;;;;;;5041820;28;20411;-77
2023/09/17 01:00:23;;;;;;;24.60;6.28;;;;;;;;;;5041276;28;20418;-76
2023/09/17 01:02:50;;;;;;;19.90;6.13;;;;;;;;;;5026889;28;20823;-77
2023/09/17 01:05:19;;;;;;;19.90;6.00;;;;;;;;;;5022591;28;20438;-78
2023/09/17 01:07:47;;;;;;;19.60;6.32;;;;;;;;;;5002793;28;20506;-77
2023/09/17 01:10:14;;;;;;;20.75;6.35;;;;;;;;;;5035282;28;20405;-77
2023/09/17 01:12:42;;;;;;;20.95;6.75;;;;;;;;;;5005647;28;20510;-77
2023/09/17 01:15:09;;;;;;;21.20;6.70;;;;;;;;;;5001091;28;20555;-78
2023/09/17 01:17:37;;;;;;;22.05;7.05;;;;;;;;;;5006955;28;20922;-78
2023/09/17 01:20:24;;;;;;;18.95;6.20;;;;;;;;;;5017051;28;20961;-75
2023/09/17 01:22:55;;;;;;;21.55;6.90;;;;;;;;;;5019221;28;20413;-78
2023/09/17 01:25:31;;;;;;;19.75;6.50;;;;;;;;;;5029889;28;20414;-77
2023/09/17 01:28:01;;;;;;;20.25;7.40;;;;;;;;;;5016797;28;20423;-78
2023/09/17 01:30:28;;;;;;;20.70;6.57;;;;;;;;;;5022501;28;20433;-76
2023/09/17 01:32:55;;;;;;;21.52;7.05;;;;;;;;;;5002357;28;20450;-77
2023/09/17 01:35:22;;;;;;;22.00;6.95;;;;;;;;;;4998577;28;20776;-77
2023/09/17 01:37:52;;;;;;;20.60;7.10;;;;;;;;;;5018555;28;20409;-78
2023/09/17 01:40:20;;;;;;;25.88;7.25;;;;;;;;;;5003103;28;20770;-77
2023/09/17 01:42:47;;;;;;;22.05;6.70;;;;;;;;;;5015169;28;20469;-78
2023/09/17 01:45:16;;;;;;;20.45;6.78;;;;;;;;;;5002273;28;20524;-78
2023/09/17 01:47:44;;;;;;;20.42;7.13;;;;;;;;;;4998601;28;20509;-77
2023/09/17 01:50:12;;;;;;;20.92;6.38;;;;;;;;;;5014991;28;20838;-78
2023/09/17 01:52:40;;;;;;;22.90;6.40;;;;;;;;;;4998566;28;20526;-78
2023/09/17 01:55:10;;;;;;;20.90;7.07;;;;;;;;;;5014218;28;20407;-78
2023/09/17 01:57:37;;;;;;;20.33;6.82;;;;;;;;;;5018305;28;20445;-78
2023/09/17 02:00:28;;;;;;;19.52;6.60;;;;;;;;;;5029800;28;20417;-76
2023/09/17 02:02:54;;;;;;;20.45;6.90;;;;;;;;;;5022648;28;20446;-79
2023/09/17 02:05:24;;;;;;;21.75;7.20;;;;;;;;;;5024622;28;20433;-76
2023/09/17 02:07:55;;;;;;;20.70;6.73;;;;;;;;;;5043537;28;20484;-80
2023/09/17 02:10:22;;;;;;;22.40;7.85;;;;;;;;;;5017493;28;20418;-79
2023/09/17 02:12:50;;;;;;;20.67;7.20;;;;;;;;;;5039009;28;20399;-79
2023/09/17 02:15:24;;;;;;;20.90;7.25;;;;;;;;;;5015935;28;20473;-79
2023/09/17 02:17:52;;;;;;;22.38;7.47;;;;;;;;;;5001945;28;20419;-78
2023/09/17 02:20:20;;;;;;;20.83;7.00;;;;;;;;;;5014628;28;20435;-78
2023/09/17 02:22:50;;;;;;;20.90;6.03;;;;;;;;;;5014700;28;20406;-79
2023/09/17 02:25:18;;;;;;;22.35;7.80;;;;;;;;;;5001430;28;20434;-79
2023/09/17 02:27:46;;;;;;;21.90;7.60;;;;;;;;;;5014789;28;20513;-77
2023/09/17 02:30:17;;;;;;;20.75;7.25;;;;;;;;;;5024413;28;20418;-77
2023/09/17 02:32:44;;;;;;;21.50;7.40;;;;;;;;;;5005115;28;20491;-77
2023/09/17 02:35:11;;;;;;;22.63;7.77;;;;;;;;;;5016470;28;20749;-78
2023/09/17 02:37:39;;;;;;;22.88;7.53;;;;;;;;;;5021048;28;20403;-77
2023/09/17 02:40:12;;;;;;;20.73;6.90;;;;;;;;;;5048070;28;20928;-77
2023/09/17 02:42:40;;;;;;;21.08;7.20;;;;;;;;;;5000418;28;20504;-76
2023/09/17 02:45:08;;;;;;;21.90;7.55;;;;;;;;;;5017415;28;20419;-76
2023/09/17 02:47:36;;;;;;;22.98;8.10;;;;;;;;;;5000355;28;20761;-76
2023/09/17 02:50:05;;;;;;;23.10;6.97;;;;;;;;;;5013887;28;20407;-78
2023/09/17 02:52:32;;;;;;;21.17;7.38;;;;;;;;;;5016260;28;20415;-77
2023/09/17 02:55:04;;;;;;;22.27;7.10;;;;;;;;;;5034510;28;20497;-76
2023/09/17 02:57:33;;;;;;;20.35;6.45;;;;;;;;;;5031905;28;20465;-76
2023/09/17 03:00:04;;;;;;;20.50;7.00;;;;;;;;;;5017896;28;20433;-77
2023/09/17 03:02:32;;;;;;;21.33;7.40;;;;;;;;;;5013960;28;20476;-77
2023/09/17 03:05:00;;;;;;;21.15;7.50;;;;;;;;;;4997201;28;20526;-76
2023/09/17 03:07:32;;;;;;;21.85;7.38;;;;;;;;;;4997841;28;20435;-77
2023/09/17 03:10:02;;;;;;;22.08;7.40;;;;;;;;;;5034301;28;20827;-77
2023/09/17 03:12:31;;;;;;;19.98;6.75;;;;;;;;;;5017191;28;20423;-77
2023/09/17 03:15:01;;;;;;;23.00;7.35;;;;;;;;;;5017242;28;20825;-77
2023/09/17 03:17:28;;;;;;;20.55;7.00;;;;;;;;;;5001120;28;20442;-76
2023/09/17 03:19:56;;;;;;;21.85;7.60;;;;;;;;;;5015662;28;20922;-77
2023/09/17 03:22:26;;;;;;;20.58;6.88;;;;;;;;;;5002802;28;20967;-77
2023/09/17 03:24:57;;;;;;;21.02;7.50;;;;;;;;;;5018263;28;20838;-76
2023/09/17 03:27:34;;;;;;;21.40;7.70;;;;;;;;;;5035879;28;20436;-76
2023/09/17 03:30:05;;;;;;;19.50;6.07;;;;;;;;;;5021299;28;20435;-76
2023/09/17 03:32:35;;;;;;;21.20;7.38;;;;;;;;;;5018693;28;20450;-76
2023/09/17 03:35:27;;;;;;;20.10;6.40;;;;;;;;;;5026652;28;20412;-77
2023/09/17 03:37:56;;;;;;;21.80;7.47;;;;;;;;;;5024220;28;20784;-76
2023/09/17 03:40:23;;;;;;;21.73;7.38;;;;;;;;;;5021805;28;20505;-77
2023/09/17 03:42:53;;;;;;;20.33;6.63;;;;;;;;;;5000737;28;20427;-77
2023/09/17 03:45:20;;;;;;;20.40;6.72;;;;;;;;;;5016649;28;20427;-77
2023/09/17 03:47:52;;;;;;;20.40;7.07;;;;;;;;;;5003582;28;20449;-76
2023/09/17 03:50:23;;;;;;;20.60;6.28;;;;;;;;;;5000503;28;20996;-77
2023/09/17 03:52:53;;;;;;;21.80;6.65;;;;;;;;;;5023362;28;20874;-77
2023/09/17 03:55:23;;;;;;;21.10;7.37;;;;;;;;;;5019583;28;20930;-77
2023/09/17 03:57:53;;;;;;;22.17;7.45;;;;;;;;;;5015925;28;20398;-76
2023/09/17 04:00:23;;;;;;;21.27;7.47;;;;;;;;;;5039089;28;20407;-76
2023/09/17 04:02:53;;;;;;;22.17;7.40;;;;;;;;;;4997441;28;20446;-76
2023/09/17 04:05:21;;;;;;;20.88;7.28;;;;;;;;;;5018261;28;20828;-76
2023/09/17 04:07:48;;;;;;;21.05;7.25;;;;;;;;;;5006579;28;20417;-76
2023/09/17 04:10:17;;;;;;;21.70;7.10;;;;;;;;;;5000008;28;20422;-75
2023/09/17 04:12:45;;;;;;;21.77;7.50;;;;;;;;;;5005074;28;20485;-76
2023/09/17 04:15:18;;;;;;;22.02;7.55;;;;;;;;;;5027314;28;20922;-75
2023/09/17 04:17:48;;;;;;;23.80;8.00;;;;;;;;;;5012064;28;20907;-75
2023/09/17 04:20:18;;;;;;;23.23;7.50;;;;;;;;;;4999459;28;20431;-75
2023/09/17 04:22:49;;;;;;;24.20;7.80;;;;;;;;;;4999981;28;20943;-76
2023/09/17 04:25:18;;;;;;;21.40;7.68;;;;;;;;;;5006141;28;20837;-76
2023/09/17 04:27:47;;;;;;;22.02;7.63;;;;;;;;;;5000665;28;20423;-76
2023/09/17 04:30:23;;;;;;;21.25;7.88;;;;;;;;;;5022998;28;20417;-76
2023/09/17 04:32:52;;;;;;;21.53;7.20;;;;;;;;;;5022533;28;20934;-76
2023/09/17 04:35:21;;;;;;;21.83;8.30;;;;;;;;;;4999412;28;20800;-76
2023/09/17 04:37:52;;;;;;;22.58;8.02;;;;;;;;;;4999519;28;20427;-76
2023/09/17 04:40:31;;;;;;;22.02;7.90;;;;;;;;;;5006443;28;20441;-76
2023/09/17 04:43:03;;;;;;;23.45;8.23;;;;;;;;;;4995052;28;20423;-76
2023/09/17 04:45:34;;;;;;;21.67;8.30;;;;;;;;;;5019340;28;20522;-76
2023/09/17 04:48:09;;;;;;;24.83;8.25;;;;;;;;;;5000502;28;20784;-76
2023/09/17 04:50:42;;;;;;;22.60;8.30;;;;;;;;;;4999956;28;20470;-76
2023/09/17 04:53:14;;;;;;;22.23;7.97;;;;;;;;;;5000363;28;20419;-75
2023/09/17 04:55:44;;;;;;;21.55;7.75;;;;;;;;;;5031638;28;20411;-76
2023/09/17 04:58:14;;;;;;;21.45;8.20;;;;;;;;;;5020732;28;20427;-75
2023/09/17 05:00:44;;;;;;;23.65;7.70;;;;;;;;;;5037062;28;20738;-75
2023/09/17 05:03:11;;;;;;;23.13;8.38;;;;;;;;;;5003150;28;20426;-75
2023/09/17 05:05:39;;;;;;;23.35;7.95;;;;;;;;;;5007292;28;20430;-76
2023/09/17 05:08:07;;;;;;;22.73;7.80;;;;;;;;;;5024170;28;20512;-77
2023/09/17 05:10:35;;;;;;;22.35;7.90;;;;;;;;;;5027070;28;20790;-76
2023/09/17 05:13:02;;;;;;;22.08;7.82;;;;;;;;;;5016683;28;20429;-78
2023/09/17 05:15:29;;;;;;;21.38;7.40;;;;;;;;;;5044136;28;20410;-76
2023/09/17 05:17:59;;;;;;;22.47;7.50;;;;;;;;;;5008950;28;20478;-76
2023/09/17 05:20:29;;;;;;;21.13;7.60;;;;;;;;;;5023549;28;20953;-75
2023/09/17 05:22:56;;;;;;;22.55;8.23;;;;;;;;;;5007655;28;20422;-76
2023/09/17 05:25:25;;;;;;;21.95;7.97;;;;;;;;;;5015018;28;20520;-76
2023/09/17 05:27:52;;;;;;;21.67;8.03;;;;;;;;;;5005490;28;20428;-75
2023/09/17 05:30:19;;;;;;;21.70;7.10;;;;;;;;;;5018541;28;20434;-76
2023/09/17 05:32:47;;;;;;;21.40;7.18;;;;;;;;;;5027583;28;20404;-75
2023/09/17 05:35:16;;;;;;;21.20;7.80;;;;;;;;;;5001423;28;20411;-76
2023/09/17 05:37:43;;;;;;;22.03;7.33;;;;;;;;;;5012614;28;20454;-76
2023/09/17 05:40:10;;;;;;;22.63;7.77;;;;;;;;;;5018629;28;20837;-76
2023/09/17 05:42:37;;;;;;;21.05;7.40;;;;;;;;;;5019927;28;20915;-75
2023/09/17 05:45:05;;;;;;;22.40;8.30;;;;;;;;;;5015081;28;20450;-75
2023/09/17 05:47:33;;;;;;;20.52;7.18;;;;;;;;;;4998646;28;20989;-76
2023/09/17 05:50:00;;;;;;;22.27;7.32;;;;;;;;;;5014658;28;20419;-75
2023/09/17 05:52:33;;;;;;;21.45;7.88;;;;;;;;;;4998954;28;20807;-76
2023/09/17 05:55:03;;;;;;;21.20;7.40;;;;;;;;;;5011054;28;20490;-75
2023/09/17 05:57:32;;;;;;;22.70;6.90;;;;;;;;;;5014801;28;20931;-75
2023/09/17 06:00:00;;;;;;;22.20;8.23;;;;;;;;;;4998531;28;20422;-76
2023/09/17 06:02:29;;;;;;;21.60;7.63;;;;;;;;;;5043921;28;20414;-75
2023/09/17 06:04:56;;;;;;;22.33;6.53;;;;;;;;;;4996524;28;20425;-76
2023/09/17 06:07:28;;;;;;;21.20;6.80;;;;;;;;;;4999017;28;20446;-75
2023/09/17 06:09:56;;;;;;;20.15;6.93;;;;;;;;;;5014432;28;20517;-75
2023/09/17 06:12:23;;;;;;;21.55;7.72;;;;;;;;;;5004667;28;20506;-75
2023/09/17 06:14:50;;;;;;;21.30;7.20;;;;;;;;;;5017534;28;20434;-76
2023/09/17 06:17:17;;;;;;;20.52;6.55;;;;;;;;;;5003158;28;20478;-76
2023/09/17 06:19:44;;;;;;;21.23;6.57;;;;;;;;;;5002788;28;20415;-75
2023/09/17 06:22:12;;;;;;;20.30;6.65;;;;;;;;;;5021449;28;20421;-74
2023/09/17 06:24:38;;;;;;;21.67;7.28;;;;;;;;;;5030453;28;20516;-75
2023/09/17 06:27:07;;;;;;;22.50;7.38;;;;;;;;;;5020616;28;20410;-75
2023/09/17 06:29:34;;;;;;;20.10;6.73;;;;;;;;;;5010650;28;20452;-76
2023/09/17 06:32:01;;;;;;;19.77;6.53;;;;;;;;;;5014081;28;20422;-75
2023/09/17 06:34:30;;;;;;;20.17;6.90;;;;;;;;;;5022190;28;20507;-77
2023/09/17 06:36:57;;;;;;;20.70;6.97;;;;;;;;;;4997631;28;20415;-75
2023/09/17 06:39:25;;;;;;;22.23;6.70;;;;;;;;;;5019144;28;20425;-76
2023/09/17 06:41:53;;;;;;;19.35;6.30;;;;;;;;;;4997956;28;20421;-75
2023/09/17 06:44:23;;;;;;;20.90;6.30;;;;;;;;;;5016403;28;20426;-76
2023/09/17 06:46:49;;;;;;;19.00;5.90;;;;;;;;;;5017474;28;20510;-76
2023/09/17 06:49:16;;;;;;;19.63;6.25;;;;;;;;;;5018164;28;20414;-76
2023/09/17 06:51:43;;;;;;;20.52;6.30;;;;;;;;;;5031088;28;20415;-76
2023/09/17 06:54:10;;;;;;;20.20;5.40;;;;;;;;;;5017501;28;20875;-76
2023/09/17 06:56:38;;;;;;;20.27;5.40;;;;;;;;;;5005043;28;20429;-76
2023/09/17 06:59:05;;;;;;;20.48;6.00;;;;;;;;;;5030763;28;20908;-75
2023/09/17 07:01:34;;;;;;;18.75;6.20;;;;;;;;;;5034704;28;20414;-77
2023/09/17 07:04:01;;;;;;;20.15;5.90;;;;;;;;;;5034832;28;20403;-77
2023/09/17 07:06:27;;;;;;;18.63;5.45;;;;;;;;;;5012269;28;20429;-77
2023/09/17 07:08:55;;;;;;;20.70;5.53;;;;;;;;;;5020410;28;21018;-75
2023/09/17 07:11:22;;;;;;;20.65;6.30;;;;;;;;;;5035597;28;20415;-78
2023/09/17 07:13:49;;;;;;;18.47;4.83;;;;;;;;;;5021418;28;20406;-79
2023/09/17 07:16:17;;;;;;;20.27;5.70;;;;;;;;;;5006998;28;20415;-78
2023/09/17 07:18:46;;;;;;;19.73;5.90;;;;;;;;;;5026212;28;20411;-77
2023/09/17 07:21:13;;;;;;;18.45;5.60;;;;;;;;;;5016143;28;20403;-77
2023/09/17 07:23:40;;;;;;;19.05;5.20;;;;;;;;;;5021746;28;20414;-80
2023/09/17 07:26:07;;;;;;;19.35;4.53;;;;;;;;;;5021485;28;20879;-79
2023/09/17 07:28:34;;;;;;;17.75;5.00;;;;;;;;;;5035432;28;20407;-79
2023/09/17 07:31:01;;;;;;;17.73;4.85;;;;;;;;;;5029633;28;20415;-78
2023/09/17 07:33:28;;;;;;;17.80;4.88;;;;;;;;;;5040936;28;20406;-80
2023/09/17 07:35:56;;;;;;;20.10;4.70;;;;;;;;;;5024062;28;20410;-80
2023/09/17 07:38:23;;;;;;;20.25;4.90;;;;;;;;;;5020118;28;20411;-78
2023/09/17 07:40:49;;;;;;;17.67;4.70;;;;;;;;;;5018330;28;20465;-77
2023/09/17 07:43:16;;;;;;;16.90;4.00;;;;;;;;;;5034930;28;20477;-77
2023/09/17 07:45:43;;;;;;;16.63;3.80;;;;;;;;;;5016300;28;20442;-80
2023/09/17 07:48:11;;;;;;;18.38;4.30;;;;;;;;;;5019484;28;20461;-78
2023/09/17 07:50:40;;;;;;;17.30;4.10;;;;;;;;;;5026148;28;20975;-80
2023/09/17 07:53:08;;;;;;;17.15;3.60;;;;;;;;;;5007137;28;20945;-79
2023/09/17 07:55:35;;;;;;;18.38;3.72;;;;;;;;;;5006969;28;20405;-79
2023/09/17 07:58:03;;;;;;;17.60;3.70;;;;;;;;;;5002450;28;20750;-76
2023/09/17 08:00:30;;;;;;;19.35;4.63;;;;;;;;;;5021904;28;20426;-79
2023/09/17 08:02:56;;;;;;;18.10;3.85;;;;;;;;;;5021185;28;20918;-79
2023/09/17 08:05:25;;;;;;;16.05;3.72;;;;;;;;;;5001861;28;20516;-77
2023/09/17 08:07:52;;;;;;;18.58;3.80;;;;;;;;;;5016181;28;20411;-79
2023/09/17 08:10:20;;;;;;;16.45;3.20;;;;;;;;;;5025969;28;20457;-79
2023/09/17 08:12:47;;;;;;;16.38;3.35;;;;;;;;;;5014138;28;20411;-79
2023/09/17 08:15:17;;;;;;;16.65;3.50;;;;;;;;;;5036284;28;21210;-80
2023/09/17 08:17:44;;;;;;;16.73;3.30;;;;;;;;;;5020870;28;20423;-80
2023/09/17 08:20:13;;;;;;;16.70;3.20;;;;;;;;;;5022122;28;20455;-75
2023/09/17 08:22:40;;;;;;;16.77;3.80;;;;;;;;;;5038900;28;20409;-78
2023/09/17 08:25:09;;;;;;;15.90;3.30;;;;;;;;;;5001080;28;20422;-77
2023/09/17 08:27:38;;;;;;;17.23;3.30;;;;;;;;;;5021296;28;20900;-80
2023/09/17 08:30:11;;;;;;;18.00;3.25;;;;;;;;;;5033484;28;20411;-81
2023/09/17 08:32:39;;;;;;;17.13;3.42;;;;;;;;;;5023159;28;20409;-80
2023/09/17 08:35:07;;;;;;;16.60;3.47;;;;;;;;;;5017746;28;20429;-80
2023/09/17 08:37:38;;;;;;;17.70;3.40;;;;;;;;;;5004755;28;20422;-79
2023/09/17 08:40:14;;;;;;;19.13;3.85;;;;;;;;;;5015495;28;20425;-79
2023/09/17 08:42:43;;;;;;;17.17;3.88;;;;;;;;;;5047231;28;20525;-76
2023/09/17 08:45:11;;;;;;;15.90;3.10;;;;;;;;;;5023244;28;20409;-81
2023/09/17 08:47:38;;;;;;;18.00;3.10;;;;;;;;;;5011586;28;20425;-79
2023/09/17 08:50:07;;;;;;;15.60;3.00;;;;;;;;;;5022278;28;20412;-81
2023/09/17 08:52:35;;;;;;;16.83;3.08;;;;;;;;;;5010015;28;20780;-76
2023/09/17 08:55:04;;;;;;;16.48;2.92;;;;;;;;;;5012510;28;20440;-76
2023/09/17 08:57:33;;;;;;;18.00;3.08;;;;;;;;;;5027832;28;20405;-79
2023/09/17 09:00:09;;;;;;;16.10;3.13;;;;;;;;;;5025101;28;20798;-78
2023/09/17 09:02:40;;;;;;;16.95;2.90;;;;;;;;;;5024325;28;20448;-79
2023/09/17 09:05:11;;;;;;;17.17;3.25;;;;;;;;;;5007186;28;20794;-79
2023/09/17 09:07:39;;;;;;;15.40;2.40;;;;;;;;;;5020599;28;20912;-83
2023/09/17 09:10:06;;;;;;;15.50;2.70;;;;;;;;;;5038774;28;20411;-80
2023/09/17 09:12:33;;;;;;;15.63;2.90;;;;;;;;;;5006096;28;20435;-77
2023/09/17 09:15:03;;;;;;;15.90;2.60;;;;;;;;;;4999382;28;20786;-80
2023/09/17 09:17:30;;;;;;;15.95;2.50;;;;;;;;;;5024101;28;20412;-80
2023/09/17 09:19:57;;;;;;;16.23;2.97;;;;;;;;;;5020148;28;20479;-78
2023/09/17 09:22:25;;;;;;;18.48;3.55;;;;;;;;;;5021428;28;20403;-79
2023/09/17 09:24:52;;;;;;;15.60;2.40;;;;;;;;;;5021112;28;20403;-79
2023/09/17 09:27:19;;;;;;;15.48;2.40;;;;;;;;;;5046621;28;20939;-79
2023/09/17 09:29:46;;;;;;;16.50;2.90;;;;;;;;;;5003897;28;20418;-81
2023/09/17 09:32:17;;;;;;;15.40;2.60;;;;;;;;;;5020683;28;20413;-78
2023/09/17 09:34:46;;;;;;;16.40;2.72;;;;;;;;;;5016774;28;20501;-78
2023/09/17 09:37:12;;;;;;;15.45;2.50;;;;;;;;;;5015066;28;20453;-81
2023/09/17 09:39:41;;;;;;;15.70;2.90;;;;;;;;;;5040791;28;20418;-80
2023/09/17 09:42:11;;;;;;;15.50;2.97;;;;;;;;;;5022657;28;20411;-79
2023/09/17 09:44:40;;;;;;;17.13;2.35;;;;;;;;;;5017048;28;20946;-81
2023/09/17 09:47:08;;;;;;;16.75;2.92;;;;;;;;;;5015701;28;20919;-78
2023/09/17 09:49:40;;;;;;;15.40;2.50;;;;;;;;;;5020673;28;20403;-80
2023/09/17 09:52:07;;;;;;;16.80;2.90;;;;;;;;;;5036459;28;20407;-79
2023/09/17 09:54:37;;;;;;;15.52;2.92;;;;;;;;;;5012108;28;21042;-82
2023/09/17 09:57:07;;;;;;;18.80;2.70;;;;;;;;;;5029440;28;20417;-76
2023/09/17 09:59:35;;;;;;;15.80;2.45;;;;;;;;;;5014195;28;20904;-76
2023/09/17 10:02:02;;;;;;;15.50;2.90;;;;;;;;;;5026993;28;20424;-80
2023/09/17 10:04:29;;;;;;;15.85;2.65;;;;;;;;;;5017155;28;20443;-80
2023/09/17 10:06:58;;;;;;;15.52;2.90;;;;;;;;;;5018335;28;20433;-81
2023/09/17 10:09:25;;;;;;;15.25;2.20;;;;;;;;;;5031862;28;20418;-81
2023/09/17 10:11:52;;;;;;;19.02;2.63;;;;;;;;;;5000785;28;20423;-83
2023/09/17 10:14:19;;;;;;;15.23;2.50;;;;;;;;;;5010985;28;20419;-76
2023/09/17 10:16:48;;;;;;;15.65;2.63;;;;;;;;;;5031214;28;20409;-78
2023/09/17 10:19:19;;;;;;;15.10;2.33;;;;;;;;;;5041809;28;20407;-80
2023/09/17 10:21:46;;;;;;;16.92;3.30;;;;;;;;;;5042772;28;20489;-78
2023/09/17 10:24:17;;;;;;;16.92;2.53;;;;;;;;;;5043183;28;20414;-81
2023/09/17 10:26:44;;;;;;;15.00;2.40;;;;;;;;;;5036013;28;20761;-80
2023/09/17 10:29:12;;;;;;;15.10;2.60;;;;;;;;;;5014915;28;20414;-79
2023/09/17 10:31:39;;;;;;;17.00;2.22;;;;;;;;;;5017099;28;20892;-77
2023/09/17 10:34:08;;;;;;;15.45;2.40;;;;;;;;;;5007796;28;20415;-80
2023/09/17 10:36:38;;;;;;;15.05;2.35;;;;;;;;;;5007854;28;20407;-80
2023/09/17 10:39:06;;;;;;;16.45;2.25;;;;;;;;;;5037974;28;20403;-80
2023/09/17 10:41:39;;;;;;;16.65;2.60;;;;;;;;;;5021538;28;20419;-80
2023/09/17 10:44:06;;;;;;;16.30;2.40;;;;;;;;;;5034035;28;20405;-80
2023/09/17 10:46:35;;;;;;;17.10;2.60;;;;;;;;;;5016867;28;20840;-80
2023/09/17 10:49:02;;;;;;;15.02;2.33;;;;;;;;;;5018459;28;20488;-79
2023/09/17 10:51:29;;;;;;;15.68;1.88;;;;;;;;;;5021273;28;20518;-79
2023/09/17 10:53:56;;;;;;;15.70;2.40;;;;;;;;;;5026843;28;20833;-80
2023/09/17 10:56:23;;;;;;;16.83;2.50;;;;;;;;;;5016680;28;20403;-80
2023/09/17 10:58:52;;;;;;;14.80;1.98;;;;;;;;;;5032855;28;20422;-80
2023/09/17 11:01:20;;;;;;;15.02;2.38;;;;;;;;;;5016811;28;20430;-79
2023/09/17 11:03:49;;;;;;;16.42;2.40;;;;;;;;;;5039382;28;20465;-79
2023/09/17 11:06:23;;;;;;;14.70;2.10;;;;;;;;;;5020182;28;20870;-79
2023/09/17 11:08:51;;;;;;;17.40;2.30;;;;;;;;;;5033161;28;20406;-80
2023/09/17 11:11:18;;;;;;;15.10;2.00;;;;;;;;;;5004026;28;21006;-77
2023/09/17 11:13:46;;;;;;;14.88;2.10;;;;;;;;;;5031913;28;20405;-79
2023/09/17 11:16:15;;;;;;;15.50;2.30;;;;;;;;;;5023740;28;20464;-78
2023/09/17 11:18:45;;;;;;;15.90;2.30;;;;;;;;;;5019394;28;20494;-79
2023/09/17 11:21:12;;;;;;;;;;;;;;;;;;5025748;28;20045;-79
2023/09/17 11:23:39;;;;;;;;;;;;;;;;;;5017641;28;20290;-80
2023/09/17 11:26:06;;;;;;;;;;;;;;;;;;5022494;28;19924;-81
2023/09/17 11:28:32;;;;;;;;;;;;;;;;;;5019315;28;19921;-80
2023/09/17 11:31:01;;;;;;;16.20;2.20;;;;;;;;;;5024801;28;20506;-81
2023/09/17 11:33:32;;;;;;;16.33;2.00;;;;;;;;;;5029828;28;20478;-79
2023/09/17 11:35:59;;;;;;;14.77;2.00;;;;;;;;;;5043260;28;21165;-80
2023/09/17 11:38:26;;;;;;;15.45;2.35;;;;;;;;;;5021746;28;20896;-83
2023/09/17 11:41:07;;;;;;;14.73;2.00;;;;;;;;;;5043380;28;20501;-81
2023/09/17 11:43:35;;;;;;;14.55;2.10;;;;;;;;;;5016788;28;20897;-86
2023/09/17 11:46:04;;;;;;;14.43;1.90;;;;;;;;;;5041178;28;20415;-82
2023/09/17 11:48:34;;;;;;;15.07;2.00;;;;;;;;;;5039710;28;20414;-79
2023/09/17 11:51:16;;;;;;;14.85;1.95;;;;;;;;;;5040815;28;20443;-78
2023/09/17 11:53:57;;;;;;;14.10;1.80;;;;;;;;;;5038811;28;20872;-81
2023/09/17 11:56:24;;;;;;;15.37;1.87;;;;;;;;;;5015570;28;20421;-81
2023/09/17 11:58:58;;;;;;;14.82;2.10;;;;;;;;;;5019381;28;20414;-78
2023/09/17 12:01:25;;;;;;;14.70;2.10;;;;;;;;;;5036613;28;20499;-79
2023/09/17 12:03:53;;;;;;;15.45;2.33;;;;;;;;;;5018832;28;20410;-82
2023/09/17 12:06:20;;;;;;;14.75;1.60;;;;;;;;;;5020089;28;20407;-81
2023/09/17 12:08:48;;;;;;;14.40;1.85;;;;;;;;;;5039697;28;20823;-80
2023/09/17 12:11:22;;;;;;;14.40;1.80;;;;;;;;;;5035886;28;20399;-80
2023/09/17 12:13:53;;;;;;;15.40;2.22;;;;;;;;;;5043356;28;20904;-83
2023/09/17 12:16:22;;;;;;;14.73;2.03;;;;;;;;;;5015389;28;20427;-80
2023/09/17 12:18:49;;;;;;;14.85;2.03;;;;;;;;;;5016668;28;20439;-80
2023/09/17 12:21:29;;;;;;;14.73;2.20;;;;;;;;;;5025740;28;20756;-81
2023/09/17 12:24:05;;;;;;;15.00;2.33;;;;;;;;;;5025303;28;20423;-78
2023/09/17 12:26:57;;;;;;;15.13;2.20;;;;;;;;;;5023007;28;20512;-80
2023/09/17 12:29:34;;;;;;;14.50;1.80;;;;;;;;;;5037744;28;20399;-80
2023/09/17 12:32:00;;;;;;;15.00;2.22;;;;;;;;;;5037663;28;20496;-81
2023/09/17 12:34:27;;;;;;;14.95;2.13;;;;;;;;;;5016508;28;20446;-80
2023/09/17 12:36:56;;;;;;;15.00;2.03;;;;;;;;;;5031289;28;20410;-79
2023/09/17 12:39:23;;;;;;;15.85;2.25;;;;;;;;;;5023010;28;20426;-80
2023/09/17 12:41:50;;;;;;;14.77;2.13;;;;;;;;;;5046388;28;20501;-80
2023/09/17 12:44:19;;;;;;;15.40;2.30;;;;;;;;;;5022441;28;20515;-80
2023/09/17 12:46:46;;;;;;;14.90;1.88;;;;;;;;;;5002677;28;20461;-81
2023/09/17 12:49:13;;;;;;;15.00;2.10;;;;;;;;;;5030700;28;20912;-79
2023/09/17 12:51:40;;;;;;;15.60;2.30;;;;;;;;;;5019293;28;20429;-79
2023/09/17 12:54:09;;;;;;;16.55;2.10;;;;;;;;;;5020899;28;20434;-79
2023/09/17 12:56:36;;;;;;;15.75;2.20;;;;;;;;;;5004280;28;20418;-79
2023/09/17 12:59:06;;;;;;;14.60;1.95;;;;;;;;;;5005014;28;20423;-80
2023/09/17 13:01:32;;;;;;;14.40;1.73;;;;;;;;;;5019286;28;20419;-80
2023/09/17 13:04:03;;;;;;;15.60;1.80;;;;;;;;;;5034368;28;20461;-82
2023/09/17 13:06:33;;;;;;;14.80;2.00;;;;;;;;;;5017628;28;20411;-80
2023/09/17 13:09:02;;;;;;;14.35;1.77;;;;;;;;;;5014619;28;20421;-80
2023/09/17 13:11:30;;;;;;;14.30;1.70;;;;;;;;;;5015042;28;20438;-82
2023/09/17 13:13:57;;;;;;;14.80;2.00;;;;;;;;;;5015557;28;20422;-83
2023/09/17 13:16:24;;;;;;;15.70;2.20;;;;;;;;;;5030016;28;20413;-80
2023/09/17 13:18:51;;;;;;;15.77;1.90;;;;;;;;;;5025714;28;20980;-82
2023/09/17 13:21:18;;;;;;;15.10;1.80;;;;;;;;;;5024223;28;21012;-80
2023/09/17 13:23:45;;;;;;;14.30;1.90;;;;;;;;;;5026508;28;20406;-80
2023/09/17 13:26:11;;;;;;;15.38;2.00;;;;;;;;;;5036962;28;20926;-80
2023/09/17 13:28:40;;;;;;;14.60;1.90;;;;;;;;;;5034165;28;20940;-80
2023/09/17 13:31:07;;;;;;;14.20;1.63;;;;;;;;;;5018618;28;20424;-80
2023/09/17 13:33:36;;;;;;;15.10;1.67;;;;;;;;;;5015261;28;20922;-80
2023/09/17 13:36:04;;;;;;;15.57;1.88;;;;;;;;;;5018838;28;20942;-78
2023/09/17 13:38:31;;;;;;;14.60;2.13;;;;;;;;;;5028238;28;20400;-79
2023/09/17 13:40:58;;;;;;;14.40;1.80;;;;;;;;;;5032257;28;20540;-80
2023/09/17 13:43:25;;;;;;;14.20;1.80;;;;;;;;;;5039240;28;20943;-82
2023/09/17 13:45:54;;;;;;;14.50;1.75;;;;;;;;;;5013537;28;20509;-79
2023/09/17 13:48:21;;;;;;;14.57;1.80;;;;;;;;;;5041397;28;20418;-80
2023/09/17 13:50:48;;;;;;;14.40;1.85;;;;;;;;;;5001982;28;20514;-80
2023/09/17 13:53:18;;;;;;;14.55;1.70;;;;;;;;;;4998088;28;20415;-79
2023/09/17 13:55:45;;;;;;;15.60;1.70;;;;;;;;;;5000507;28;20411;-80
2023/09/17 13:58:12;;;;;;;15.70;1.80;;;;;;;;;;5036160;28;20535;-80
2023/09/17 14:00:40;;;;;;;14.20;1.50;;;;;;;;;;5023681;28;20431;-78
2023/09/17 14:03:10;;;;;;;15.13;2.00;;;;;;;;;;5019576;28;20506;-81
2023/09/17 14:05:37;;;;;;;14.63;1.60;;;;;;;;;;4999475;28;20934;-80
2023/09/17 14:08:04;;;;;;;14.10;1.58;;;;;;;;;;5017679;28;20465;-82
2023/09/17 14:10:33;;;;;;;14.50;1.70;;;;;;;;;;5019813;28;20452;-78
2023/09/17 14:13:01;;;;;;;14.05;1.60;;;;;;;;;;5016476;28;20469;-80
2023/09/17 14:15:27;;;;;;;15.37;1.50;;;;;;;;;;5013408;28;20410;-80
2023/09/17 14:17:54;;;;;;;15.50;1.80;;;;;;;;;;5036731;28;20403;-79
2023/09/17 14:20:22;;;;;;;14.20;1.60;;;;;;;;;;5040992;28;20521;-80
2023/09/17 14:22:49;;;;;;;14.40;1.70;;;;;;;;;;5003597;28;20423;-80
2023/09/17 14:25:16;;;;;;;14.85;1.80;;;;;;;;;;5024275;28;21079;-83
2023/09/17 14:27:42;;;;;;;15.05;1.92;;;;;;;;;;5039936;28;20796;-80
2023/09/17 14:30:21;;;;;;;15.82;2.13;;;;;;;;;;5032540;28;20411;-80
2023/09/17 14:32:48;;;;;;;14.35;1.75;;;;;;;;;;5019563;28;20417;-81
2023/09/17 14:35:15;;;;;;;14.25;1.60;;;;;;;;;;5016472;28;20815;-79
2023/09/17 14:37:46;;;;;;;14.00;1.60;;;;;;;;;;5025533;28;20408;-79
2023/09/17 14:40:13;;;;;;;14.20;1.60;;;;;;;;;;5011787;28;20524;-80